Windhoek, Namibia
Current Conditions -  °F | °C
As of 10:00 AM on Monday 20 Oct 2014 (Local Time) from FYWW Reporting Station
Clear Clear  
Wind Chill: 86°   Ceiling: Unl
Heat Index: 86°   Visibility: 6mi
Dew Point: 25°   Wind: 3mph
Humidity: 11%   Direction: 190°S
Pressure: 30.18"   Gusts: NA
Location:  22.56°S, 17.09°E
Report Text: FYWW 200900Z 19003KT CAVOK 30/M04 Q1022
Loading
Personal Weather Stations






























Interactive Weather Map
Tropical Storm Tracking
New forecast layout! Learn more

10-Day Weather Forecast

Advertisements
Track Severe Weather on mobile